Leonie — PHLE — position and weather

sailwx.info

Track history (hours):
 
Tides and Currents Weather Stations Pressure Air Temp Water Temp Dewpoint Dewpoint Depression Visibility Wind Speed Wind Dir Waves Ship Positions

Leonie

Last reported at 2016-Sep-29 16:32 UTC. Time now 2016-Sep-30 04:58 UTC.
Position N 59°42' E 024°19'.

Length 90 m; draft 3.9 m.

Type: Cargo ship. MMSI: 244772000.

Date/timePositionNaut miles runAvg speedWind from/ knotsBaromVisibWave heightAir tempDewpointWater temp
2016-Sep-29 16:32N 59°42' E 024°19'9 8.6
2016-Sep-29 15:29N 59°39' E 024°02'9 9.6
2016-Sep-29 14:32N 59°37' E 023°45'9 9.7
2016-Sep-29 13:33N 59°34' E 023°27'47 9.4
2016-Sep-29 08:33N 59°28' E 021°55'10 9.7
2016-Sep-29 07:33N 59°31' E 021°36'  
2016-Sep-25 04:33N 55°34' E 015°14'4611.5
2016-Sep-25 00:33N 55°04' E 014°12'2311.4
2016-Sep-24 22:32N 54°54' E 013°36'1111.2
2016-Sep-24 21:31N 54°51' E 013°17'2211.1
2016-Sep-24 19:33N 54°41' E 012°44'1211.2
2016-Sep-24 18:27N 54°34' E 012°26'1011.1
2016-Sep-24 17:33N 54°27' E 012°14'1110.9
2016-Sep-24 16:33N 54°25' E 011°55'2311.4
2016-Sep-24 14:33N 54°32' E 011°18'2211.1
2016-Sep-24 12:33N 54°33' E 010°40'20 9.9
2016-Sep-24 10:33N 54°22' E 010°11'3 2.8
2016-Sep-24 09:33N 54°22' E 010°06'43 7.1
2016-Sep-24 03:33N 53°55' E 009°10'2 1.7
2016-Sep-24 02:33N 53°53' E 009°08'7 7.2
2016-Sep-24 01:33N 53°51' E 008°57'9 9.4
2016-Sep-24 00:33N 53°54' E 008°42'5110.1
2016-Sep-23 19:33N 53°52' E 007°16'2110.4
2016-Sep-23 17:33N 53°47' E 006°42'1110.7
2016-Sep-23 16:33N 53°44' E 006°24'1111.1
2016-Sep-23 15:33N 53°41' E 006°06'2311.6
2016-Sep-23 13:33N 53°33' E 005°29'4711.6
2016-Sep-23 09:32N 53°05' E 004°27'8311.7
2016-Sep-23 02:26N 51°52' E 003°22'9 9.8
2016-Sep-23 01:33N 51°45' E 003°15'9 9.4
2016-Sep-23 00:33N 51°36' E 003°23'10 9.9
2016-Sep-22 23:33N 51°28' E 003°31'8 2.5
2016-Sep-22 20:31N 51°27' E 003°43'0 0.0
2016-Sep-22 12:33N 51°27' E 003°43'5 0.6
2016-Sep-22 04:33N 51°27' E 003°36'0 0.0
2016-Sep-22 03:33N 51°27' E 003°36'0 0.0
2016-Sep-22 00:33N 51°27' E 003°36'0 0.0
2016-Sep-21 23:32N 51°27' E 003°36'0 0.0
2016-Sep-21 22:32N 51°27' E 003°36'0 0.0
2016-Sep-21 19:32N 51°27' E 003°36'0 0.0
2016-Sep-21 16:32N 51°27' E 003°36'0 0.0
2016-Sep-21 09:32N 51°27' E 003°36'0 0.0
2016-Sep-21 08:32N 51°27' E 003°36'0 0.0
2016-Sep-21 05:32N 51°27' E 003°36'0 0.0
2016-Sep-21 03:32N 51°27' E 003°36'0 0.0
2016-Sep-21 02:32N 51°27' E 003°36'0 0.0
2016-Sep-20 17:32N 51°27' E 003°36'0 0.0
2016-Sep-20 14:32N 51°27' E 003°36'0 0.0
2016-Sep-20 13:32N 51°27' E 003°36'0 0.0
2016-Sep-20 10:32N 51°27' E 003°36'0 0.0
2016-Sep-20 08:32N 51°27' E 003°36'0 0.0
2016-Sep-20 07:32N 51°27' E 003°36'0 0.0
2016-Sep-20 06:32N 51°27' E 003°36'0 0.0
2016-Sep-20 02:34N 51°27' E 003°36'28 9.3
2016-Sep-19 23:33N 51°22' E 002°52'31 7.9
2016-Sep-19 19:33N 51°12' E 002°04'8 8.1
2016-Sep-19 18:33N 51°08' E 001°53'2010.1
2016-Sep-19 16:33N 50°54' E 001°30'  
Track history (hours):
 
Tides and Currents Weather Stations Pressure Air Temp Water Temp Dewpoint Dewpoint Depression Visibility Wind Speed Wind Dir Waves Ship Positions

Leonie

Last reported at 2016-Sep-29 16:32 UTC. Time now 2016-Sep-30 04:58 UTC.
Position N 59°42' E 024°19'.

Length 90 m; draft 3.9 m.

Type: Cargo ship. MMSI: 244772000.

Date/timePositionNaut miles runAvg speedWind from/ knotsBaromVisibWave heightAir tempDewpointWater temp
2016-Sep-29 16:32N 59°42' E 024°19'9 8.6
2016-Sep-29 15:29N 59°39' E 024°02'9 9.6
2016-Sep-29 14:32N 59°37' E 023°45'9 9.7
2016-Sep-29 13:33N 59°34' E 023°27'47 9.4
2016-Sep-29 08:33N 59°28' E 021°55'10 9.7
2016-Sep-29 07:33N 59°31' E 021°36'  
2016-Sep-25 04:33N 55°34' E 015°14'4611.5
2016-Sep-25 00:33N 55°04' E 014°12'2311.4
2016-Sep-24 22:32N 54°54' E 013°36'1111.2
2016-Sep-24 21:31N 54°51' E 013°17'2211.1
2016-Sep-24 19:33N 54°41' E 012°44'1211.2
2016-Sep-24 18:27N 54°34' E 012°26'1011.1
2016-Sep-24 17:33N 54°27' E 012°14'1110.9
2016-Sep-24 16:33N 54°25' E 011°55'2311.4
2016-Sep-24 14:33N 54°32' E 011°18'2211.1
2016-Sep-24 12:33N 54°33' E 010°40'20 9.9
2016-Sep-24 10:33N 54°22' E 010°11'3 2.8
2016-Sep-24 09:33N 54°22' E 010°06'43 7.1
2016-Sep-24 03:33N 53°55' E 009°10'2 1.7
2016-Sep-24 02:33N 53°53' E 009°08'7 7.2
2016-Sep-24 01:33N 53°51' E 008°57'9 9.4
2016-Sep-24 00:33N 53°54' E 008°42'5110.1
2016-Sep-23 19:33N 53°52' E 007°16'2110.4
2016-Sep-23 17:33N 53°47' E 006°42'1110.7
2016-Sep-23 16:33N 53°44' E 006°24'1111.1
2016-Sep-23 15:33N 53°41' E 006°06'2311.6
2016-Sep-23 13:33N 53°33' E 005°29'4711.6
2016-Sep-23 09:32N 53°05' E 004°27'8311.7
2016-Sep-23 02:26N 51°52' E 003°22'9 9.8
2016-Sep-23 01:33N 51°45' E 003°15'9 9.4
2016-Sep-23 00:33N 51°36' E 003°23'10 9.9
2016-Sep-22 23:33N 51°28' E 003°31'8 2.5
2016-Sep-22 20:31N 51°27' E 003°43'0 0.0
2016-Sep-22 12:33N 51°27' E 003°43'5 0.6
2016-Sep-22 04:33N 51°27' E 003°36'0 0.0
2016-Sep-22 03:33N 51°27' E 003°36'0 0.0
2016-Sep-22 00:33N 51°27' E 003°36'0 0.0
2016-Sep-21 23:32N 51°27' E 003°36'0 0.0
2016-Sep-21 22:32N 51°27' E 003°36'0 0.0
2016-Sep-21 19:32N 51°27' E 003°36'0 0.0
2016-Sep-21 16:32N 51°27' E 003°36'0 0.0
2016-Sep-21 09:32N 51°27' E 003°36'0 0.0
2016-Sep-21 08:32N 51°27' E 003°36'0 0.0
2016-Sep-21 05:32N 51°27' E 003°36'0 0.0
2016-Sep-21 03:32N 51°27' E 003°36'0 0.0
2016-Sep-21 02:32N 51°27' E 003°36'0 0.0
2016-Sep-20 17:32N 51°27' E 003°36'0 0.0
2016-Sep-20 14:32N 51°27' E 003°36'0 0.0
2016-Sep-20 13:32N 51°27' E 003°36'0 0.0
2016-Sep-20 10:32N 51°27' E 003°36'0 0.0
2016-Sep-20 08:32N 51°27' E 003°36'0 0.0
2016-Sep-20 07:32N 51°27' E 003°36'0 0.0
2016-Sep-20 06:32N 51°27' E 003°36'0 0.0
2016-Sep-20 02:34N 51°27' E 003°36'28 9.3
2016-Sep-19 23:33N 51°22' E 002°52'31 7.9
2016-Sep-19 19:33N 51°12' E 002°04'8 8.1
2016-Sep-19 18:33N 51°08' E 001°53'2010.1
2016-Sep-19 16:33N 50°54' E 001°30'  

Dump ship's entire track history